sensor_id;sensor_type;location;lat;lon;timestamp;temperature;humidity
29031;DHT22;16122;50.236;11.734;2022-08-27T00:02:10;22.20;73.70
29031;DHT22;16122;50.236;11.734;2022-08-27T00:04:36;22.20;73.70
29031;DHT22;16122;50.236;11.734;2022-08-27T00:07:04;22.20;73.70
29031;DHT22;16122;50.236;11.734;2022-08-27T00:09:30;22.20;73.60
29031;DHT22;16122;50.236;11.734;2022-08-27T00:11:57;22.20;73.60
29031;DHT22;16122;50.236;11.734;2022-08-27T00:14:25;22.20;73.60
29031;DHT22;16122;50.236;11.734;2022-08-27T00:16:51;22.20;73.70
29031;DHT22;16122;50.236;11.734;2022-08-27T00:19:17;22.20;73.60
29031;DHT22;16122;50.236;11.734;2022-08-27T00:21:43;22.20;73.60
29031;DHT22;16122;50.236;11.734;2022-08-27T00:24:09;22.20;73.60
29031;DHT22;16122;50.236;11.734;2022-08-27T00:26:37;22.20;73.60
29031;DHT22;16122;50.236;11.734;2022-08-27T00:29:03;22.20;73.60
29031;DHT22;16122;50.236;11.734;2022-08-27T00:31:30;22.20;73.60
29031;DHT22;16122;50.236;11.734;2022-08-27T00:33:56;22.20;73.60
29031;DHT22;16122;50.236;11.734;2022-08-27T00:36:23;22.20;74.40
29031;DHT22;16122;50.236;11.734;2022-08-27T00:38:49;22.20;73.60
29031;DHT22;16122;50.236;11.734;2022-08-27T00:41:16;22.20;73.60
29031;DHT22;16122;50.236;11.734;2022-08-27T00:46:36;22.20;73.50
29031;DHT22;16122;50.236;11.734;2022-08-27T00:49:12;22.20;73.50
29031;DHT22;16122;50.236;11.734;2022-08-27T00:51:39;22.20;73.50
29031;DHT22;16122;50.236;11.734;2022-08-27T00:54:06;22.20;73.50
29031;DHT22;16122;50.236;11.734;2022-08-27T00:56:41;22.20;73.50
29031;DHT22;16122;50.236;11.734;2022-08-27T00:59:12;22.20;73.60
29031;DHT22;16122;50.236;11.734;2022-08-27T01:01:40;22.20;73.50
29031;DHT22;16122;50.236;11.734;2022-08-27T01:04:27;22.20;73.50
29031;DHT22;16122;50.236;11.734;2022-08-27T01:06:54;22.20;73.50
29031;DHT22;16122;50.236;11.734;2022-08-27T01:09:21;22.20;73.50
29031;DHT22;16122;50.236;11.734;2022-08-27T01:11:47;22.20;73.50
29031;DHT22;16122;50.236;11.734;2022-08-27T01:14:13;22.20;73.40
29031;DHT22;16122;50.236;11.734;2022-08-27T01:16:45;22.20;73.40
29031;DHT22;16122;50.236;11.734;2022-08-27T01:19:39;22.20;73.40
29031;DHT22;16122;50.236;11.734;2022-08-27T01:24:41;22.20;73.40
29031;DHT22;16122;50.236;11.734;2022-08-27T01:27:12;22.20;73.40
29031;DHT22;16122;50.236;11.734;2022-08-27T01:29:41;22.10;73.20
29031;DHT22;16122;50.236;11.734;2022-08-27T01:32:19;22.10;73.30
29031;DHT22;16122;50.236;11.734;2022-08-27T01:34:46;22.10;73.20
29031;DHT22;16122;50.236;11.734;2022-08-27T01:37:13;22.10;73.20
29031;DHT22;16122;50.236;11.734;2022-08-27T01:39:40;22.10;74.00
29031;DHT22;16122;50.236;11.734;2022-08-27T01:42:23;22.10;73.20
29031;DHT22;16122;50.236;11.734;2022-08-27T01:44:55;22.20;73.40
29031;DHT22;16122;50.236;11.734;2022-08-27T01:47:25;22.10;73.10
29031;DHT22;16122;50.236;11.734;2022-08-27T01:49:51;22.10;73.10
29031;DHT22;16122;50.236;11.734;2022-08-27T01:52:19;22.10;73.10
29031;DHT22;16122;50.236;11.734;2022-08-27T01:54:45;22.10;73.10
29031;DHT22;16122;50.236;11.734;2022-08-27T01:57:12;22.10;73.00
29031;DHT22;16122;50.236;11.734;2022-08-27T01:59:38;22.10;73.10
29031;DHT22;16122;50.236;11.734;2022-08-27T02:02:05;22.10;73.10
29031;DHT22;16122;50.236;11.734;2022-08-27T02:04:31;22.10;73.10
29031;DHT22;16122;50.236;11.734;2022-08-27T02:06:58;22.10;73.00
29031;DHT22;16122;50.236;11.734;2022-08-27T02:09:24;22.10;72.90
29031;DHT22;16122;50.236;11.734;2022-08-27T02:11:51;22.10;73.00
29031;DHT22;16122;50.236;11.734;2022-08-27T02:14:17;22.10;73.00
29031;DHT22;16122;50.236;11.734;2022-08-27T02:16:43;22.10;73.90
29031;DHT22;16122;50.236;11.734;2022-08-27T02:19:09;22.10;73.00
29031;DHT22;16122;50.236;11.734;2022-08-27T02:21:35;22.10;72.90
29031;DHT22;16122;50.236;11.734;2022-08-27T02:24:02;22.10;73.00
29031;DHT22;16122;50.236;11.734;2022-08-27T02:26:27;22.10;72.90
29031;DHT22;16122;50.236;11.734;2022-08-27T02:28:54;22.10;72.90
29031;DHT22;16122;50.236;11.734;2022-08-27T02:31:20;22.10;72.90
29031;DHT22;16122;50.236;11.734;2022-08-27T02:33:46;22.10;72.90
29031;DHT22;16122;50.236;11.734;2022-08-27T02:36:13;22.10;73.00
29031;DHT22;16122;50.236;11.734;2022-08-27T02:38:39;22.10;72.90
29031;DHT22;16122;50.236;11.734;2022-08-27T02:41:05;22.10;72.90
29031;DHT22;16122;50.236;11.734;2022-08-27T02:43:31;22.10;72.90
29031;DHT22;16122;50.236;11.734;2022-08-27T02:45:58;22.10;72.90
29031;DHT22;16122;50.236;11.734;2022-08-27T02:48:23;22.10;72.90
29031;DHT22;16122;50.236;11.734;2022-08-27T02:50:50;22.10;72.90
29031;DHT22;16122;50.236;11.734;2022-08-27T02:53:16;22.10;72.90
29031;DHT22;16122;50.236;11.734;2022-08-27T02:55:44;22.10;72.90
29031;DHT22;16122;50.236;11.734;2022-08-27T02:58:10;22.10;72.90
29031;DHT22;16122;50.236;11.734;2022-08-27T03:00:40;22.10;72.80
29031;DHT22;16122;50.236;11.734;2022-08-27T03:03:05;22.10;73.70
29031;DHT22;16122;50.236;11.734;2022-08-27T03:05:31;22.10;72.80
29031;DHT22;16122;50.236;11.734;2022-08-27T03:07:57;22.10;72.80
29031;DHT22;16122;50.236;11.734;2022-08-27T03:10:24;22.10;72.80
29031;DHT22;16122;50.236;11.734;2022-08-27T03:12:50;22.10;72.80
29031;DHT22;16122;50.236;11.734;2022-08-27T03:15:17;22.10;72.80
29031;DHT22;16122;50.236;11.734;2022-08-27T03:17:43;22.10;72.80
29031;DHT22;16122;50.236;11.734;2022-08-27T03:20:28;22.10;72.90
29031;DHT22;16122;50.236;11.734;2022-08-27T03:22:54;22.10;72.90
29031;DHT22;16122;50.236;11.734;2022-08-27T03:25:21;22.10;72.80
29031;DHT22;16122;50.236;11.734;2022-08-27T03:27:47;22.10;72.80
29031;DHT22;16122;50.236;11.734;2022-08-27T03:30:17;22.10;72.80
29031;DHT22;16122;50.236;11.734;2022-08-27T03:32:44;22.10;72.80
29031;DHT22;16122;50.236;11.734;2022-08-27T03:35:11;22.10;72.80
29031;DHT22;16122;50.236;11.734;2022-08-27T03:37:38;22.10;72.80
29031;DHT22;16122;50.236;11.734;2022-08-27T03:40:05;22.10;72.80
29031;DHT22;16122;50.236;11.734;2022-08-27T03:42:33;22.10;72.80
29031;DHT22;16122;50.236;11.734;2022-08-27T03:44:59;22.10;72.70
29031;DHT22;16122;50.236;11.734;2022-08-27T03:47:25;22.10;72.80
29031;DHT22;16122;50.236;11.734;2022-08-27T03:49:51;22.10;72.80
29031;DHT22;16122;50.236;11.734;2022-08-27T03:52:17;22.10;72.70
29031;DHT22;16122;50.236;11.734;2022-08-27T03:54:44;22.10;72.70
29031;DHT22;16122;50.236;11.734;2022-08-27T03:57:10;22.00;72.60
29031;DHT22;16122;50.236;11.734;2022-08-27T03:59:36;22.10;72.80
29031;DHT22;16122;50.236;11.734;2022-08-27T04:02:03;22.10;72.70
29031;DHT22;16122;50.236;11.734;2022-08-27T04:04:29;22.10;72.70
29031;DHT22;16122;50.236;11.734;2022-08-27T04:06:57;22.10;72.70
29031;DHT22;16122;50.236;11.734;2022-08-27T04:09:23;22.10;72.70
29031;DHT22;16122;50.236;11.734;2022-08-27T04:11:49;22.10;72.70
29031;DHT22;16122;50.236;11.734;2022-08-27T04:14:15;22.10;72.70
29031;DHT22;16122;50.236;11.734;2022-08-27T04:16:41;22.10;72.70
29031;DHT22;16122;50.236;11.734;2022-08-27T04:19:08;22.00;73.40
29031;DHT22;16122;50.236;11.734;2022-08-27T04:21:34;22.00;72.60
29031;DHT22;16122;50.236;11.734;2022-08-27T04:24:01;22.00;72.50
29031;DHT22;16122;50.236;11.734;2022-08-27T04:26:28;22.00;72.60
29031;DHT22;16122;50.236;11.734;2022-08-27T04:28:55;22.00;72.60
29031;DHT22;16122;50.236;11.734;2022-08-27T04:31:21;22.00;72.60
29031;DHT22;16122;50.236;11.734;2022-08-27T04:33:47;22.00;72.60
29031;DHT22;16122;50.236;11.734;2022-08-27T04:36:13;22.00;72.60
29031;DHT22;16122;50.236;11.734;2022-08-27T04:38:39;22.00;72.60
29031;DHT22;16122;50.236;11.734;2022-08-27T04:41:07;22.00;72.60
29031;DHT22;16122;50.236;11.734;2022-08-27T04:43:52;22.00;72.60
29031;DHT22;16122;50.236;11.734;2022-08-27T04:46:23;22.00;73.00
29031;DHT22;16122;50.236;11.734;2022-08-27T04:48:51;22.00;73.70
29031;DHT22;16122;50.236;11.734;2022-08-27T04:51:17;22.00;74.20
29031;DHT22;16122;50.236;11.734;2022-08-27T04:53:43;22.10;74.60
29031;DHT22;16122;50.236;11.734;2022-08-27T04:56:13;22.00;74.10
29031;DHT22;16122;50.236;11.734;2022-08-27T04:58:40;22.10;74.60
29031;DHT22;16122;50.236;11.734;2022-08-27T05:01:06;22.10;74.80
29031;DHT22;16122;50.236;11.734;2022-08-27T05:03:32;22.10;74.90
29031;DHT22;16122;50.236;11.734;2022-08-27T05:06:05;22.10;75.00
29031;DHT22;16122;50.236;11.734;2022-08-27T05:08:52;22.10;75.10
29031;DHT22;16122;50.236;11.734;2022-08-27T05:11:21;22.10;75.00
29031;DHT22;16122;50.236;11.734;2022-08-27T05:13:47;22.10;75.10
29031;DHT22;16122;50.236;11.734;2022-08-27T05:16:16;22.10;75.00
29031;DHT22;16122;50.236;11.734;2022-08-27T05:18:44;22.10;74.90
29031;DHT22;16122;50.236;11.734;2022-08-27T05:21:17;22.10;74.90
29031;DHT22;16122;50.236;11.734;2022-08-27T05:23:43;22.10;74.90
29031;DHT22;16122;50.236;11.734;2022-08-27T05:26:09;22.10;74.80
29031;DHT22;16122;50.236;11.734;2022-08-27T05:28:35;22.10;74.90
29031;DHT22;16122;50.236;11.734;2022-08-27T05:31:05;22.10;75.00
29031;DHT22;16122;50.236;11.734;2022-08-27T05:33:32;22.10;74.90
29031;DHT22;16122;50.236;11.734;2022-08-27T05:35:59;22.10;75.00
29031;DHT22;16122;50.236;11.734;2022-08-27T05:38:28;22.10;75.00
29031;DHT22;16122;50.236;11.734;2022-08-27T05:41:06;22.10;75.10
29031;DHT22;16122;50.236;11.734;2022-08-27T05:43:35;22.10;75.10
29031;DHT22;16122;50.236;11.734;2022-08-27T05:46:07;22.10;75.10
29031;DHT22;16122;50.236;11.734;2022-08-27T05:48:33;22.10;74.80
29031;DHT22;16122;50.236;11.734;2022-08-27T05:51:19;22.10;74.70
29031;DHT22;16122;50.236;11.734;2022-08-27T05:53:45;22.10;75.20
29031;DHT22;16122;50.236;11.734;2022-08-27T05:56:17;22.10;75.40
29031;DHT22;16122;50.236;11.734;2022-08-27T05:58:44;22.10;75.30
29031;DHT22;16122;50.236;11.734;2022-08-27T06:01:30;22.10;75.40
29031;DHT22;16122;50.236;11.734;2022-08-27T06:03:57;22.10;75.30
29031;DHT22;16122;50.236;11.734;2022-08-27T06:06:23;22.10;75.40
29031;DHT22;16122;50.236;11.734;2022-08-27T06:08:50;22.10;75.10
29031;DHT22;16122;50.236;11.734;2022-08-27T06:11:16;22.10;75.20
29031;DHT22;16122;50.236;11.734;2022-08-27T06:13:44;22.10;75.50
29031;DHT22;16122;50.236;11.734;2022-08-27T06:16:12;22.10;75.40
29031;DHT22;16122;50.236;11.734;2022-08-27T06:18:39;22.10;75.40
29031;DHT22;16122;50.236;11.734;2022-08-27T06:21:07;22.10;75.70
29031;DHT22;16122;50.236;11.734;2022-08-27T06:23:34;22.10;75.30
29031;DHT22;16122;50.236;11.734;2022-08-27T06:26:00;22.10;75.20
29031;DHT22;16122;50.236;11.734;2022-08-27T06:28:27;22.10;75.10
29031;DHT22;16122;50.236;11.734;2022-08-27T06:31:23;22.10;75.50
29031;DHT22;16122;50.236;11.734;2022-08-27T06:33:51;22.10;75.50
29031;DHT22;16122;50.236;11.734;2022-08-27T06:36:20;22.10;75.40
29031;DHT22;16122;50.236;11.734;2022-08-27T06:38:46;22.10;76.00
29031;DHT22;16122;50.236;11.734;2022-08-27T06:41:14;22.10;75.00
29031;DHT22;16122;50.236;11.734;2022-08-27T06:43:41;22.10;75.00
29031;DHT22;16122;50.236;11.734;2022-08-27T06:46:13;22.10;74.90
29031;DHT22;16122;50.236;11.734;2022-08-27T06:48:39;22.10;74.80
29031;DHT22;16122;50.236;11.734;2022-08-27T06:51:17;22.10;74.70
29031;DHT22;16122;50.236;11.734;2022-08-27T06:53:45;22.10;74.70
29031;DHT22;16122;50.236;11.734;2022-08-27T06:56:15;22.10;74.60
29031;DHT22;16122;50.236;11.734;2022-08-27T06:58:41;22.10;74.70
29031;DHT22;16122;50.236;11.734;2022-08-27T07:01:16;22.10;74.60
29031;DHT22;16122;50.236;11.734;2022-08-27T07:03:44;22.10;74.50
29031;DHT22;16122;50.236;11.734;2022-08-27T07:06:11;22.10;74.40
29031;DHT22;16122;50.236;11.734;2022-08-27T07:08:39;22.10;74.40
29031;DHT22;16122;50.236;11.734;2022-08-27T07:11:11;22.10;74.50
29031;DHT22;16122;50.236;11.734;2022-08-27T07:13:38;22.00;74.60
29031;DHT22;16122;50.236;11.734;2022-08-27T07:16:11;22.00;74.50
29031;DHT22;16122;50.236;11.734;2022-08-27T07:18:38;22.10;74.50
29031;DHT22;16122;50.236;11.734;2022-08-27T07:21:05;22.00;74.40
29031;DHT22;16122;50.236;11.734;2022-08-27T07:23:32;22.00;74.40
29031;DHT22;16122;50.236;11.734;2022-08-27T07:25:58;22.00;74.40
29031;DHT22;16122;50.236;11.734;2022-08-27T07:28:25;22.00;74.40
29031;DHT22;16122;50.236;11.734;2022-08-27T07:30:52;22.00;74.40
29031;DHT22;16122;50.236;11.734;2022-08-27T07:33:18;22.00;74.40
29031;DHT22;16122;50.236;11.734;2022-08-27T07:35:44;22.00;74.40
29031;DHT22;16122;50.236;11.734;2022-08-27T07:38:11;22.10;74.40
29031;DHT22;16122;50.236;11.734;2022-08-27T07:40:37;22.00;74.30
29031;DHT22;16122;50.236;11.734;2022-08-27T07:43:07;22.00;74.30
29031;DHT22;16122;50.236;11.734;2022-08-27T07:45:52;22.00;74.30
29031;DHT22;16122;50.236;11.734;2022-08-27T07:48:24;22.00;74.20
29031;DHT22;16122;50.236;11.734;2022-08-27T07:50:51;22.00;74.20
29031;DHT22;16122;50.236;11.734;2022-08-27T07:53:18;22.00;74.20
29031;DHT22;16122;50.236;11.734;2022-08-27T07:55:44;22.00;76.40
29031;DHT22;16122;50.236;11.734;2022-08-27T07:58:11;22.00;75.40
29031;DHT22;16122;50.236;11.734;2022-08-27T08:00:40;22.00;74.90
29031;DHT22;16122;50.236;11.734;2022-08-27T08:03:07;22.00;74.70
29031;DHT22;16122;50.236;11.734;2022-08-27T08:05:33;22.00;74.70
29031;DHT22;16122;50.236;11.734;2022-08-27T08:07:59;22.00;74.70
29031;DHT22;16122;50.236;11.734;2022-08-27T08:10:25;22.00;74.70
29031;DHT22;16122;50.236;11.734;2022-08-27T08:12:51;22.00;74.70
29031;DHT22;16122;50.236;11.734;2022-08-27T08:15:18;22.00;74.60
29031;DHT22;16122;50.236;11.734;2022-08-27T08:17:44;22.00;74.50
29031;DHT22;16122;50.236;11.734;2022-08-27T08:20:10;22.00;74.50
29031;DHT22;16122;50.236;11.734;2022-08-27T08:22:38;22.00;74.50
29031;DHT22;16122;50.236;11.734;2022-08-27T08:25:04;22.00;74.60
29031;DHT22;16122;50.236;11.734;2022-08-27T08:27:30;22.00;74.90
29031;DHT22;16122;50.236;11.734;2022-08-27T08:29:58;22.00;75.30
29031;DHT22;16122;50.236;11.734;2022-08-27T08:32:24;22.00;75.50
29031;DHT22;16122;50.236;11.734;2022-08-27T08:34:50;22.00;75.20
29031;DHT22;16122;50.236;11.734;2022-08-27T08:37:16;22.00;74.90
29031;DHT22;16122;50.236;11.734;2022-08-27T08:39:43;22.00;75.10
29031;DHT22;16122;50.236;11.734;2022-08-27T08:42:45;22.00;75.00
29031;DHT22;16122;50.236;11.734;2022-08-27T08:45:22;22.00;74.80
29031;DHT22;16122;50.236;11.734;2022-08-27T08:48:14;22.00;74.80
29031;DHT22;16122;50.236;11.734;2022-08-27T08:51:03;22.00;74.90
29031;DHT22;16122;50.236;11.734;2022-08-27T08:56:09;22.00;74.80
29031;DHT22;16122;50.236;11.734;2022-08-27T09:01:08;22.00;74.80
29031;DHT22;16122;50.236;11.734;2022-08-27T09:03:37;22.00;75.70
29031;DHT22;16122;50.236;11.734;2022-08-27T09:06:09;22.00;75.70
29031;DHT22;16122;50.236;11.734;2022-08-27T09:08:38;22.00;74.80
29031;DHT22;16122;50.236;11.734;2022-08-27T09:11:39;22.00;74.80
29031;DHT22;16122;50.236;11.734;2022-08-27T09:16:46;22.00;74.80
29031;DHT22;16122;50.236;11.734;2022-08-27T09:19:11;22.00;74.80
29031;DHT22;16122;50.236;11.734;2022-08-27T09:24:26;22.00;74.80
29031;DHT22;16122;50.236;11.734;2022-08-27T09:26:54;22.00;74.70
29031;DHT22;16122;50.236;11.734;2022-08-27T09:29:26;22.00;74.70
29031;DHT22;16122;50.236;11.734;2022-08-27T09:34:26;22.00;74.80
29031;DHT22;16122;50.236;11.734;2022-08-27T09:44:52;22.00;74.90
29031;DHT22;16122;50.236;11.734;2022-08-27T09:47:19;22.10;75.00
29031;DHT22;16122;50.236;11.734;2022-08-27T09:49:45;22.10;74.90
29031;DHT22;16122;50.236;11.734;2022-08-27T09:52:33;22.10;74.90
29031;DHT22;16122;50.236;11.734;2022-08-27T09:55:00;22.10;75.00
29031;DHT22;16122;50.236;11.734;2022-08-27T09:57:37;22.10;74.90
29031;DHT22;16122;50.236;11.734;2022-08-27T10:00:07;22.10;74.80
29031;DHT22;16122;50.236;11.734;2022-08-27T10:02:48;22.10;74.80
29031;DHT22;16122;50.236;11.734;2022-08-27T10:05:23;22.10;74.70
29031;DHT22;16122;50.236;11.734;2022-08-27T10:07:53;22.10;74.70
29031;DHT22;16122;50.236;11.734;2022-08-27T10:10:53;22.10;74.70
29031;DHT22;16122;50.236;11.734;2022-08-27T10:16:40;22.10;74.70
29031;DHT22;16122;50.236;11.734;2022-08-27T10:25:22;22.10;74.70
29031;DHT22;16122;50.236;11.734;2022-08-27T10:33:34;22.10;74.50
29031;DHT22;16122;50.236;11.734;2022-08-27T10:38:53;22.10;74.60
29031;DHT22;16122;50.236;11.734;2022-08-27T10:41:27;22.10;74.60
29031;DHT22;16122;50.236;11.734;2022-08-27T10:52:25;22.10;74.70
29031;DHT22;16122;50.236;11.734;2022-08-27T10:55:00;22.10;74.70
29031;DHT22;16122;50.236;11.734;2022-08-27T11:00:42;22.10;74.90
29031;DHT22;16122;50.236;11.734;2022-08-27T11:03:59;22.10;74.80
29031;DHT22;16122;50.236;11.734;2022-08-27T11:06:02;22.10;74.80
29031;DHT22;16122;50.236;11.734;2022-08-27T11:08:42;22.10;75.20
29031;DHT22;16122;50.236;11.734;2022-08-27T11:13:58;22.10;75.20
29031;DHT22;16122;50.236;11.734;2022-08-27T11:16:46;22.10;75.20
29031;DHT22;16122;50.236;11.734;2022-08-27T11:19:32;22.10;75.30
29031;DHT22;16122;50.236;11.734;2022-08-27T11:22:10;22.10;75.30
29031;DHT22;16122;50.236;11.734;2022-08-27T11:27:42;22.10;75.50
29031;DHT22;16122;50.236;11.734;2022-08-27T11:30:33;22.10;75.60
29031;DHT22;16122;50.236;11.734;2022-08-27T11:33:15;22.10;75.80
29031;DHT22;16122;50.236;11.734;2022-08-27T11:39:03;22.10;75.70
29031;DHT22;16122;50.236;11.734;2022-08-27T11:43:59;22.10;75.90
29031;DHT22;16122;50.236;11.734;2022-08-27T11:46:41;22.10;75.90
29031;DHT22;16122;50.236;11.734;2022-08-27T11:49:07;22.10;75.90
29031;DHT22;16122;50.236;11.734;2022-08-27T11:51:38;22.10;75.90
29031;DHT22;16122;50.236;11.734;2022-08-27T11:54:20;22.10;75.80
29031;DHT22;16122;50.236;11.734;2022-08-27T11:56:46;22.10;75.80
29031;DHT22;16122;50.236;11.734;2022-08-27T11:59:41;22.10;75.90
29031;DHT22;16122;50.236;11.734;2022-08-27T12:02:21;22.10;75.90
29031;DHT22;16122;50.236;11.734;2022-08-27T12:04:50;22.10;75.90
29031;DHT22;16122;50.236;11.734;2022-08-27T12:10:12;22.10;76.00
29031;DHT22;16122;50.236;11.734;2022-08-27T12:18:55;22.10;76.10
29031;DHT22;16122;50.236;11.734;2022-08-27T12:24:13;22.10;76.10
29031;DHT22;16122;50.236;11.734;2022-08-27T12:26:57;22.10;76.10
29031;DHT22;16122;50.236;11.734;2022-08-27T12:32:50;22.10;76.00
29031;DHT22;16122;50.236;11.734;2022-08-27T12:35:40;22.10;76.00
29031;DHT22;16122;50.236;11.734;2022-08-27T12:38:17;22.10;76.00
29031;DHT22;16122;50.236;11.734;2022-08-27T12:40:52;22.10;76.30
29031;DHT22;16122;50.236;11.734;2022-08-27T12:43:27;22.10;76.30
29031;DHT22;16122;50.236;11.734;2022-08-27T12:46:20;22.10;76.20
29031;DHT22;16122;50.236;11.734;2022-08-27T12:48:56;22.10;76.00
29031;DHT22;16122;50.236;11.734;2022-08-27T12:51:29;22.10;76.10
29031;DHT22;16122;50.236;11.734;2022-08-27T12:59:56;22.10;76.00
29031;DHT22;16122;50.236;11.734;2022-08-27T13:03:25;22.10;76.00
29031;DHT22;16122;50.236;11.734;2022-08-27T13:05:41;22.10;75.90
29031;DHT22;16122;50.236;11.734;2022-08-27T13:08:20;22.10;75.90
29031;DHT22;16122;50.236;11.734;2022-08-27T13:10:48;22.10;75.90
29031;DHT22;16122;50.236;11.734;2022-08-27T13:13:24;22.10;75.80
29031;DHT22;16122;50.236;11.734;2022-08-27T13:15:55;22.10;75.80
29031;DHT22;16122;50.236;11.734;2022-08-27T13:18:23;22.10;75.80
29031;DHT22;16122;50.236;11.734;2022-08-27T13:21:21;22.10;75.80
29031;DHT22;16122;50.236;11.734;2022-08-27T13:24:03;22.10;75.70
29031;DHT22;16122;50.236;11.734;2022-08-27T13:26:35;22.10;75.70
29031;DHT22;16122;50.236;11.734;2022-08-27T13:29:04;22.10;75.60
29031;DHT22;16122;50.236;11.734;2022-08-27T13:31:31;22.10;75.70
29031;DHT22;16122;50.236;11.734;2022-08-27T13:33:57;22.10;75.70
29031;DHT22;16122;50.236;11.734;2022-08-27T13:38:52;22.10;75.50
29031;DHT22;16122;50.236;11.734;2022-08-27T13:43:51;22.10;75.50
29031;DHT22;16122;50.236;11.734;2022-08-27T13:46:23;22.10;75.50
29031;DHT22;16122;50.236;11.734;2022-08-27T13:48:53;22.10;75.50
29031;DHT22;16122;50.236;11.734;2022-08-27T13:51:30;22.10;75.40
29031;DHT22;16122;50.236;11.734;2022-08-27T13:53:58;22.20;75.60
29031;DHT22;16122;50.236;11.734;2022-08-27T13:56:53;22.10;75.40
29031;DHT22;16122;50.236;11.734;2022-08-27T14:01:59;22.10;75.30
29031;DHT22;16122;50.236;11.734;2022-08-27T14:04:38;22.10;75.30
29031;DHT22;16122;50.236;11.734;2022-08-27T14:07:11;22.10;75.40
29031;DHT22;16122;50.236;11.734;2022-08-27T14:09:54;22.10;76.10
29031;DHT22;16122;50.236;11.734;2022-08-27T14:12:33;22.10;75.30
29031;DHT22;16122;50.236;11.734;2022-08-27T14:15:30;22.10;75.30
29031;DHT22;16122;50.236;11.734;2022-08-27T14:17:57;22.10;75.20
29031;DHT22;16122;50.236;11.734;2022-08-27T14:20:23;22.20;75.40
29031;DHT22;16122;50.236;11.734;2022-08-27T14:22:49;22.10;75.20
29031;DHT22;16122;50.236;11.734;2022-08-27T14:25:17;22.10;75.20
29031;DHT22;16122;50.236;11.734;2022-08-27T14:27:44;22.10;75.20
29031;DHT22;16122;50.236;11.734;2022-08-27T14:30:16;22.10;75.30
29031;DHT22;16122;50.236;11.734;2022-08-27T14:32:42;22.20;75.20
29031;DHT22;16122;50.236;11.734;2022-08-27T14:35:09;22.10;75.10
29031;DHT22;16122;50.236;11.734;2022-08-27T14:37:40;22.10;75.10
29031;DHT22;16122;50.236;11.734;2022-08-27T14:40:07;22.20;75.20
29031;DHT22;16122;50.236;11.734;2022-08-27T14:42:34;22.10;75.10
29031;DHT22;16122;50.236;11.734;2022-08-27T14:45:01;22.10;75.00
29031;DHT22;16122;50.236;11.734;2022-08-27T14:47:27;22.10;75.10
29031;DHT22;16122;50.236;11.734;2022-08-27T14:49:53;22.10;75.00
29031;DHT22;16122;50.236;11.734;2022-08-27T14:52:19;22.10;75.00
29031;DHT22;16122;50.236;11.734;2022-08-27T14:54:45;22.10;75.00
29031;DHT22;16122;50.236;11.734;2022-08-27T14:57:11;22.10;74.90
29031;DHT22;16122;50.236;11.734;2022-08-27T14:59:37;22.10;75.10
29031;DHT22;16122;50.236;11.734;2022-08-27T15:02:07;22.20;75.20
29031;DHT22;16122;50.236;11.734;2022-08-27T15:04:34;22.10;75.10
29031;DHT22;16122;50.236;11.734;2022-08-27T15:07:00;22.20;75.10
29031;DHT22;16122;50.236;11.734;2022-08-27T15:09:26;22.20;75.00
29031;DHT22;16122;50.236;11.734;2022-08-27T15:11:53;22.20;74.90
29031;DHT22;16122;50.236;11.734;2022-08-27T15:14:30;22.20;75.00
29031;DHT22;16122;50.236;11.734;2022-08-27T15:16:57;22.10;74.90
29031;DHT22;16122;50.236;11.734;2022-08-27T15:19:24;22.20;74.80
29031;DHT22;16122;50.236;11.734;2022-08-27T15:21:52;22.20;74.90
29031;DHT22;16122;50.236;11.734;2022-08-27T15:24:23;22.10;74.90
29031;DHT22;16122;50.236;11.734;2022-08-27T15:26:51;22.10;74.90
29031;DHT22;16122;50.236;11.734;2022-08-27T15:29:18;22.20;74.70
29031;DHT22;16122;50.236;11.734;2022-08-27T15:31:44;22.10;74.80
29031;DHT22;16122;50.236;11.734;2022-08-27T15:34:11;22.10;74.80
29031;DHT22;16122;50.236;11.734;2022-08-27T15:36:37;22.10;74.70
29031;DHT22;16122;50.236;11.734;2022-08-27T15:39:04;22.10;75.40
29031;DHT22;16122;50.236;11.734;2022-08-27T15:41:30;22.10;74.70
29031;DHT22;16122;50.236;11.734;2022-08-27T15:43:57;22.10;74.60
29031;DHT22;16122;50.236;11.734;2022-08-27T15:46:24;22.10;74.70
29031;DHT22;16122;50.236;11.734;2022-08-27T15:48:50;22.10;74.60
29031;DHT22;16122;50.236;11.734;2022-08-27T15:51:22;22.10;74.60
29031;DHT22;16122;50.236;11.734;2022-08-27T15:53:49;22.10;74.60
29031;DHT22;16122;50.236;11.734;2022-08-27T15:56:15;22.10;74.60
29031;DHT22;16122;50.236;11.734;2022-08-27T15:58:41;22.10;77.70
29031;DHT22;16122;50.236;11.734;2022-08-27T16:01:08;22.00;81.40
29031;DHT22;16122;50.236;11.734;2022-08-27T16:03:36;21.90;83.50
29031;DHT22;16122;50.236;11.734;2022-08-27T16:06:04;21.90;85.30
29031;DHT22;16122;50.236;11.734;2022-08-27T16:08:30;21.80;86.10
29031;DHT22;16122;50.236;11.734;2022-08-27T16:10:57;21.80;87.00
29031;DHT22;16122;50.236;11.734;2022-08-27T16:13:24;21.70;87.60
29031;DHT22;16122;50.236;11.734;2022-08-27T16:15:52;21.70;88.20
29031;DHT22;16122;50.236;11.734;2022-08-27T16:18:25;21.60;88.70
29031;DHT22;16122;50.236;11.734;2022-08-27T16:20:53;21.60;88.50
29031;DHT22;16122;50.236;11.734;2022-08-27T16:23:19;21.60;89.10
29031;DHT22;16122;50.236;11.734;2022-08-27T16:25:45;21.60;89.00
29031;DHT22;16122;50.236;11.734;2022-08-27T16:28:11;21.60;88.90
29031;DHT22;16122;50.236;11.734;2022-08-27T16:30:38;21.60;90.00
29031;DHT22;16122;50.236;11.734;2022-08-27T16:33:04;21.50;90.00
29031;DHT22;16122;50.236;11.734;2022-08-27T16:35:30;21.50;90.10
29031;DHT22;16122;50.236;11.734;2022-08-27T16:37:57;21.50;89.80
29031;DHT22;16122;50.236;11.734;2022-08-27T16:40:22;21.60;89.20
29031;DHT22;16122;50.236;11.734;2022-08-27T16:42:50;21.60;89.00
29031;DHT22;16122;50.236;11.734;2022-08-27T16:45:18;21.50;89.10
29031;DHT22;16122;50.236;11.734;2022-08-27T16:47:46;21.60;89.10
29031;DHT22;16122;50.236;11.734;2022-08-27T16:50:30;21.50;88.50
29031;DHT22;16122;50.236;11.734;2022-08-27T16:53:12;21.50;88.50
29031;DHT22;16122;50.236;11.734;2022-08-27T16:55:38;21.40;88.60
29031;DHT22;16122;50.236;11.734;2022-08-27T16:58:20;21.40;88.50
29031;DHT22;16122;50.236;11.734;2022-08-27T17:00:49;21.40;89.00
29031;DHT22;16122;50.236;11.734;2022-08-27T17:03:17;21.40;89.30
29031;DHT22;16122;50.236;11.734;2022-08-27T17:05:44;21.40;89.90
29031;DHT22;16122;50.236;11.734;2022-08-27T17:08:10;21.40;90.10
29031;DHT22;16122;50.236;11.734;2022-08-27T17:10:41;21.40;89.60